Pagrindinis puslapis
METAR-TAF:

METAR-TAF

Oro uostai :

Ipohas, Malaizija

platuma: 04-34-09N, ilguma: 101-05-35E, Aukštis: 40 m

Dabartinis oras

Ataskaita buvo paskelbta 1 valandą ir 13 minutes, ne 03:00 UTC
Vėjas 7 kt iš Šiaurės/Šiaurės Rytų, svyruoja nuo Šiaurės ir Rytų/Šiaurės Rytų
Temperatūra 28°C
Drėgmė 79%
Slėgis 1010 hPa
Matomumas: 9000 m
Mažai debesys ne aukštis 1900 ft

METAR: WMKI 140300Z 02007KT 350V060 9000 FEW019 28/24 Q1010

Laikas: 12:13 (04:13 UTC)

Prognozė

Ataskaita buvo paskelbta 5 valandos ir 13 minutes, ne 23:00 UTC
Prognozė galioja nuo 14 metu 00 UTC su 15 metu 00 UTC
Vėjas 5 kt iš Šiaurės/Šiaurės Rytų
Matomumas: 9000 m
Išsisklaidę debesys ne aukštis 1900 ft

TAF: WMKI 132300Z 1400/1500 03005KT 9000 SCT019

Orai ataskaitas ir orų prognozės (METAR, TAF).

turimą stotys yra geltonos ir raudonos taškus žemėlapyje.

Perkelti pele per norėdami pamatyti stoties vardą.

Tada spustelėkite, norėdami matyti oro stebėjimo ir prognozės.

Norėdami pakeisti žemėlapį: spustelėkite ant žalios mygtukų su juodo kryžiaus žemyn,; žalią mygtuką su brūkšneliu, jei norite nutolinti; arba žalių rodyklių gretimoms žemėlapius.


METAR-TAF: